createdAt,value
2023-03-29T00:02:13.972Z,99084.25
2023-03-29T00:04:41.275Z,99100.25
2023-03-29T00:07:08.229Z,99087.84
2023-03-29T00:09:34.849Z,99091.78
2023-03-29T00:12:01.753Z,99089.47
2023-03-29T00:14:30.505Z,99091.34
2023-03-29T00:16:58.681Z,99091.16
2023-03-29T00:19:25.640Z,99096.16
2023-03-29T00:21:52.447Z,99094.22
2023-03-29T00:24:20.992Z,99088.84
2023-03-29T00:26:47.752Z,99084.59
2023-03-29T00:29:14.308Z,99072.84
2023-03-29T00:31:41.241Z,99098.66
2023-03-29T00:34:07.910Z,99085.03
2023-03-29T00:36:34.590Z,99086.59
2023-03-29T00:39:01.334Z,99079.53
2023-03-29T00:41:28.143Z,99080.22
2023-03-29T00:44:00.740Z,99088.44
2023-03-29T00:46:30.305Z,99089.19
2023-03-29T00:49:08.898Z,99078.97
2023-03-29T00:51:41.400Z,99052.91
2023-03-29T00:54:14.635Z,99071.75
2023-03-29T00:56:44.817Z,99058.38
2023-03-29T00:59:19.595Z,99060.69
2023-03-29T01:01:57.421Z,99057.13
2023-03-29T01:04:37.168Z,99040.00
2023-03-29T01:07:41.152Z,99048.00
2023-03-29T01:10:44.802Z,99059.81
2023-03-29T01:13:18.283Z,99060.28
2023-03-29T01:15:46.928Z,99046.44
2023-03-29T01:18:15.820Z,99041.22
2023-03-29T01:21:10.300Z,99030.34
2023-03-29T01:24:06.857Z,99043.53
2023-03-29T01:26:57.095Z,99031.59
2023-03-29T01:29:45.661Z,99034.84
2023-03-29T01:32:18.610Z,99043.34
2023-03-29T01:35:00.172Z,99049.47
2023-03-29T01:37:33.055Z,99040.00
2023-03-29T01:40:01.188Z,99039.72
2023-03-29T01:42:37.068Z,99059.31
2023-03-29T01:45:17.326Z,99066.94
2023-03-29T01:47:56.017Z,99077.94
2023-03-29T01:50:38.032Z,99065.31
2023-03-29T01:53:20.257Z,99039.84
2023-03-29T01:55:55.245Z,99033.94
2023-03-29T01:58:29.503Z,99039.25
2023-03-29T02:00:58.312Z,99051.97
2023-03-29T02:03:30.965Z,99061.44
2023-03-29T02:06:00.309Z,99058.81
2023-03-29T02:08:29.789Z,99054.53
2023-03-29T02:10:57.921Z,99047.03
2023-03-29T02:13:24.615Z,99060.81
2023-03-29T02:15:51.353Z,99062.81
2023-03-29T02:18:19.857Z,99073.06
2023-03-29T02:20:50.667Z,99068.28
2023-03-29T02:23:24.554Z,99038.03
2023-03-29T02:25:56.904Z,99039.84
2023-03-29T02:28:27.086Z,99025.25
2023-03-29T02:31:20.258Z,99012.22
2023-03-29T02:34:02.408Z,99007.28
2023-03-29T02:36:41.435Z,99007.50
2023-03-29T02:39:10.521Z,99002.00
2023-03-29T02:41:38.633Z,99016.06
2023-03-29T02:44:10.455Z,98998.94
2023-03-29T02:46:38.381Z,98991.22
2023-03-29T02:49:05.779Z,98995.22
2023-03-29T02:51:34.120Z,99004.41
2023-03-29T02:54:13.960Z,99000.84
2023-03-29T02:56:57.679Z,99015.97
2023-03-29T02:59:24.523Z,98995.69
2023-03-29T03:01:52.520Z,99003.22
2023-03-29T03:04:22.790Z,99007.28
2023-03-29T03:06:50.013Z,99005.50
2023-03-29T03:09:17.276Z,99003.56
2023-03-29T03:11:46.690Z,99005.50
2023-03-29T03:14:13.482Z,99011.41
2023-03-29T03:16:40.317Z,98998.69
2023-03-29T03:19:07.188Z,98985.31
2023-03-29T03:21:35.068Z,98990.69
2023-03-29T03:24:01.960Z,99002.78
2023-03-29T03:26:30.041Z,99007.22
2023-03-29T03:28:57.323Z,98996.03
2023-03-29T03:31:59.378Z,99010.06
2023-03-29T03:34:58.900Z,99002.28
2023-03-29T03:37:27.706Z,98996.41
2023-03-29T03:39:55.104Z,99007.44
2023-03-29T03:42:22.991Z,99003.91
2023-03-29T03:44:49.957Z,98987.66
2023-03-29T03:47:46.083Z,98993.84
2023-03-29T03:50:40.976Z,98988.88
2023-03-29T03:53:08.400Z,98990.59
2023-03-29T03:55:58.089Z,98980.25
2023-03-29T03:58:31.331Z,98981.38
2023-03-29T04:00:59.132Z,99004.38
2023-03-29T04:03:37.652Z,98999.44
2023-03-29T04:06:05.482Z,99002.28
2023-03-29T04:08:52.139Z,99006.63
2023-03-29T04:11:33.618Z,98996.56
2023-03-29T04:14:00.421Z,98982.78
2023-03-29T04:16:47.516Z,98979.34
2023-03-29T04:19:37.274Z,98997.97
2023-03-29T04:22:04.223Z,98990.50
2023-03-29T04:24:31.423Z,98994.78
2023-03-29T04:27:17.381Z,98999.09
2023-03-29T04:29:44.973Z,98980.81
2023-03-29T04:32:38.221Z,99014.44
2023-03-29T04:35:09.325Z,99008.56
2023-03-29T04:37:37.102Z,99005.31
2023-03-29T04:40:09.012Z,98994.53
2023-03-29T04:42:49.494Z,99003.78
2023-03-29T04:45:19.173Z,99017.31
2023-03-29T04:48:09.060Z,99013.25
2023-03-29T04:50:38.573Z,99025.38
2023-03-29T04:53:05.943Z,99009.19
2023-03-29T04:55:32.863Z,99005.88
2023-03-29T04:58:01.219Z,99008.41
2023-03-29T05:00:35.148Z,99005.81
2023-03-29T05:03:07.614Z,99015.97
2023-03-29T05:05:38.499Z,99010.59
2023-03-29T05:08:07.234Z,98994.59
2023-03-29T05:10:44.710Z,99003.72
2023-03-29T05:13:13.101Z,99010.09
2023-03-29T05:15:41.713Z,99001.47
2023-03-29T05:18:09.639Z,98998.13
2023-03-29T05:20:37.538Z,99000.00
2023-03-29T05:23:04.273Z,98997.72
2023-03-29T05:25:50.151Z,99012.66
2023-03-29T05:28:18.350Z,99000.00
2023-03-29T05:30:46.568Z,98994.84
2023-03-29T05:33:21.265Z,98993.09
2023-03-29T05:35:48.138Z,99010.31
2023-03-29T05:38:16.055Z,99007.03
2023-03-29T05:40:43.249Z,99015.00
2023-03-29T05:43:28.994Z,99006.41
2023-03-29T05:45:56.677Z,99014.84
2023-03-29T05:48:24.543Z,99016.25
2023-03-29T05:50:53.851Z,99011.94
2023-03-29T05:53:23.363Z,99006.63
2023-03-29T05:55:51.270Z,99007.31
2023-03-29T05:58:20.578Z,99020.75
2023-03-29T06:00:49.706Z,99019.88
2023-03-29T06:03:36.598Z,99019.53
2023-03-29T06:06:04.415Z,99035.28
2023-03-29T06:08:34.928Z,99030.34
2023-03-29T06:11:27.930Z,99023.59
2023-03-29T06:14:18.972Z,99024.63
2023-03-29T06:16:55.103Z,99023.78
2023-03-29T06:19:22.745Z,99040.38
2023-03-29T06:21:50.012Z,99036.72
2023-03-29T06:24:22.377Z,99034.94
2023-03-29T06:26:56.393Z,99036.63
2023-03-29T06:29:23.313Z,99051.72
2023-03-29T06:31:50.961Z,99035.28
2023-03-29T06:34:45.269Z,99030.69
2023-03-29T06:37:32.695Z,99034.97
2023-03-29T06:40:13.244Z,99033.97
2023-03-29T06:42:45.094Z,99042.91
2023-03-29T06:45:15.080Z,99056.38
2023-03-29T06:47:46.932Z,99045.31
2023-03-29T06:50:14.699Z,99047.84
2023-03-29T06:53:00.177Z,99050.53
2023-03-29T06:55:27.321Z,99039.59
2023-03-29T06:57:55.203Z,99043.53
2023-03-29T07:00:28.203Z,99052.88
2023-03-29T07:03:20.290Z,99055.09
2023-03-29T07:05:52.102Z,99049.03
2023-03-29T07:08:21.297Z,99059.09
2023-03-29T07:10:59.544Z,99078.44
2023-03-29T07:13:44.982Z,99080.84
2023-03-29T07:16:17.577Z,99083.25
2023-03-29T07:18:53.435Z,99071.75
2023-03-29T07:21:38.012Z,99074.81
2023-03-29T07:24:06.725Z,99065.50
2023-03-29T07:26:35.165Z,99080.75
2023-03-29T07:29:01.950Z,99085.81
2023-03-29T07:31:29.703Z,99072.06
2023-03-29T07:34:13.378Z,99068.44
2023-03-29T07:36:40.552Z,99069.75
2023-03-29T07:39:09.184Z,99068.38
2023-03-29T07:41:37.966Z,99071.75
2023-03-29T07:44:12.246Z,99071.94
2023-03-29T07:46:39.185Z,99071.69
2023-03-29T07:49:08.135Z,99075.94
2023-03-29T07:51:36.637Z,99087.25
2023-03-29T07:54:08.338Z,99086.06
2023-03-29T07:56:52.837Z,99082.59
2023-03-29T07:59:33.506Z,99082.47
2023-03-29T08:02:14.456Z,99075.50
2023-03-29T08:04:44.940Z,99073.63
2023-03-29T08:07:18.834Z,99076.25
2023-03-29T08:10:12.174Z,99076.91
2023-03-29T08:12:58.278Z,99058.31
2023-03-29T08:15:39.406Z,99078.25
2023-03-29T08:18:12.971Z,99077.09
2023-03-29T08:20:40.516Z,99078.41
2023-03-29T08:23:08.145Z,99084.75
2023-03-29T08:26:08.780Z,99081.84
2023-03-29T08:28:35.517Z,99089.38
2023-03-29T08:31:02.321Z,99096.59
2023-03-29T08:33:30.285Z,99089.69
2023-03-29T08:36:17.652Z,99079.41
2023-03-29T08:38:45.537Z,99092.09
2023-03-29T08:41:32.856Z,99081.03
2023-03-29T08:44:20.434Z,99084.25
2023-03-29T08:47:23.348Z,99087.63
2023-03-29T08:49:54.574Z,99084.47
2023-03-29T08:52:35.877Z,99087.47
2023-03-29T08:55:27.297Z,99088.00
2023-03-29T08:58:18.268Z,99078.56
2023-03-29T09:01:06.081Z,99077.97
2023-03-29T09:03:50.639Z,99076.84
2023-03-29T09:06:30.402Z,99072.03
2023-03-29T09:09:22.178Z,99067.50
2023-03-29T09:12:19.999Z,99068.28
2023-03-29T09:15:08.775Z,99078.75
2023-03-29T09:17:53.527Z,99072.72
2023-03-29T09:20:27.976Z,99079.97
2023-03-29T09:23:03.550Z,99073.84
2023-03-29T09:26:29.162Z,99065.25
2023-03-29T09:29:28.184Z,99051.94
2023-03-29T09:31:56.965Z,99049.66
2023-03-29T09:34:52.337Z,99054.03
2023-03-29T09:37:44.564Z,99053.22
2023-03-29T09:40:17.578Z,99053.59
2023-03-29T09:42:58.484Z,99041.88
2023-03-29T09:45:25.791Z,99040.78
2023-03-29T09:48:02.818Z,99043.44
2023-03-29T09:50:46.857Z,99042.75
2023-03-29T09:53:16.236Z,99043.53
2023-03-29T09:55:52.260Z,99043.66
2023-03-29T09:59:00.856Z,99036.81
2023-03-29T10:01:38.372Z,99031.81
2023-03-29T10:04:09.652Z,99030.00
2023-03-29T10:06:47.603Z,99041.03
2023-03-29T10:09:20.237Z,99030.50
2023-03-29T10:12:00.160Z,99025.28
2023-03-29T10:14:30.052Z,99016.25
2023-03-29T10:16:59.942Z,99023.16
2023-03-29T10:19:35.298Z,99014.72
2023-03-29T10:22:14.098Z,99012.81
2023-03-29T10:24:48.889Z,99002.88
2023-03-29T10:27:29.278Z,99006.69
2023-03-29T10:30:00.560Z,99005.31
2023-03-29T10:32:34.795Z,98994.81
2023-03-29T10:35:20.929Z,98984.88
2023-03-29T10:37:53.713Z,98994.09
2023-03-29T10:40:43.245Z,98997.22
2023-03-29T10:43:25.798Z,98977.41
2023-03-29T10:45:57.525Z,98980.81
2023-03-29T10:48:29.193Z,98981.53
2023-03-29T10:51:02.795Z,98966.97
2023-03-29T10:53:33.132Z,98974.16
2023-03-29T10:56:18.378Z,98977.69
2023-03-29T10:59:06.330Z,98977.31
2023-03-29T11:01:53.141Z,98981.16
2023-03-29T11:04:37.554Z,98977.28
2023-03-29T11:07:34.614Z,98978.69
2023-03-29T11:10:16.664Z,98983.56
2023-03-29T11:13:04.638Z,98987.00
2023-03-29T11:16:02.862Z,98981.16
2023-03-29T11:19:11.822Z,98975.22
2023-03-29T11:21:39.797Z,98970.53
2023-03-29T11:24:51.738Z,98965.19
2023-03-29T11:27:53.634Z,98963.44
2023-03-29T11:30:36.221Z,98962.41
2023-03-29T11:33:20.080Z,98954.06
2023-03-29T11:36:19.864Z,98943.78
2023-03-29T11:39:04.476Z,98935.16
2023-03-29T11:41:35.863Z,98929.66
2023-03-29T11:44:14.499Z,98920.44
2023-03-29T11:46:46.776Z,98920.25
2023-03-29T11:49:39.575Z,98922.44
2023-03-29T11:52:17.869Z,98918.38
2023-03-29T11:54:57.649Z,98911.25
2023-03-29T11:57:50.338Z,98907.44
2023-03-29T12:00:33.245Z,98895.00
2023-03-29T12:03:28.616Z,98891.16
2023-03-29T12:06:07.067Z,98887.00
2023-03-29T12:08:42.613Z,98879.88
2023-03-29T12:11:34.967Z,98876.50
2023-03-29T12:15:05.412Z,98875.75
2023-03-29T12:17:49.241Z,98854.44
2023-03-29T12:20:29.673Z,98858.03
2023-03-29T12:22:59.939Z,98866.47
2023-03-29T12:25:37.619Z,98853.81
2023-03-29T12:28:26.997Z,98844.25
2023-03-29T12:31:21.651Z,98830.03
2023-03-29T12:34:10.256Z,98845.34
2023-03-29T12:37:44.481Z,98849.94
2023-03-29T12:40:44.102Z,98837.22
2023-03-29T12:43:41.641Z,98839.09
2023-03-29T12:46:33.648Z,98830.09
2023-03-29T12:49:16.142Z,98829.41
2023-03-29T12:51:43.870Z,98825.50
2023-03-29T12:54:19.925Z,98827.31
2023-03-29T12:56:53.543Z,98819.22
2023-03-29T12:59:38.671Z,98812.97
2023-03-29T13:02:18.295Z,98816.28
2023-03-29T13:04:55.494Z,98824.66
2023-03-29T13:07:22.816Z,98819.34
2023-03-29T13:09:56.540Z,98822.56
2023-03-29T13:12:35.795Z,98818.28
2023-03-29T13:15:23.124Z,98817.81
2023-03-29T13:17:59.407Z,98806.38
2023-03-29T13:20:47.800Z,98798.09
2023-03-29T13:23:36.482Z,98820.53
2023-03-29T13:26:12.616Z,98800.22
2023-03-29T13:29:07.445Z,98804.25
2023-03-29T13:32:05.404Z,98804.81
2023-03-29T13:34:53.570Z,98801.03
2023-03-29T13:37:39.471Z,98787.47
2023-03-29T13:40:40.470Z,98778.28
2023-03-29T13:43:22.703Z,98783.19
2023-03-29T13:45:58.827Z,98791.56
2023-03-29T13:48:33.540Z,98804.47
2023-03-29T13:51:18.682Z,98788.41
2023-03-29T13:54:08.359Z,98793.94
2023-03-29T13:57:09.324Z,98792.97
2023-03-29T13:59:59.450Z,98785.66
2023-03-29T14:02:50.420Z,98777.41
2023-03-29T14:05:28.352Z,98786.44
2023-03-29T14:07:56.087Z,98785.69
2023-03-29T14:10:28.071Z,98788.13
2023-03-29T14:12:56.991Z,98792.56
2023-03-29T14:15:42.696Z,98786.25
2023-03-29T14:18:16.877Z,98784.03
2023-03-29T14:20:46.622Z,98791.31
2023-03-29T14:23:20.286Z,98792.66
2023-03-29T14:25:47.457Z,98787.56
2023-03-29T14:28:28.947Z,98784.13
2023-03-29T14:30:56.688Z,98778.09
2023-03-29T14:33:28.531Z,98776.44
2023-03-29T14:35:57.180Z,98775.63
2023-03-29T14:38:26.246Z,98782.78
2023-03-29T14:40:58.146Z,98774.31
2023-03-29T14:43:29.810Z,98781.13
2023-03-29T14:45:58.250Z,98775.69
2023-03-29T14:48:25.867Z,98777.59
2023-03-29T14:50:53.300Z,98770.47
2023-03-29T14:53:24.275Z,98768.34
2023-03-29T14:55:53.153Z,98765.94
2023-03-29T14:58:21.550Z,98757.44
2023-03-29T15:00:51.166Z,98758.22
2023-03-29T15:03:19.654Z,98757.00
2023-03-29T15:06:05.802Z,98756.81
2023-03-29T15:08:37.601Z,98752.50
2023-03-29T15:11:14.285Z,98745.06
2023-03-29T15:13:43.090Z,98751.34
2023-03-29T15:16:14.552Z,98744.00
2023-03-29T15:18:43.740Z,98745.47
2023-03-29T15:21:14.989Z,98733.28
2023-03-29T15:23:50.940Z,98735.88
2023-03-29T15:26:23.642Z,98731.06
2023-03-29T15:29:02.968Z,98737.09
2023-03-29T15:31:35.442Z,98734.88
2023-03-29T15:34:09.071Z,98726.63
2023-03-29T15:36:42.171Z,98731.25
2023-03-29T15:39:15.469Z,98735.63
2023-03-29T15:41:43.727Z,98731.66
2023-03-29T15:44:11.135Z,98729.06
2023-03-29T15:46:38.048Z,98737.78
2023-03-29T15:49:05.147Z,98730.59
2023-03-29T15:51:32.088Z,98729.19
2023-03-29T15:53:58.694Z,98730.28
2023-03-29T15:56:27.102Z,98724.97
2023-03-29T15:58:53.721Z,98728.38
2023-03-29T16:01:36.770Z,98733.84
2023-03-29T16:04:11.154Z,98726.28
2023-03-29T16:06:38.671Z,98721.09
2023-03-29T16:09:07.193Z,98715.53
2023-03-29T16:11:34.384Z,98711.53
2023-03-29T16:14:01.444Z,98716.03
2023-03-29T16:16:28.901Z,98721.25
2023-03-29T16:18:56.145Z,98723.75
2023-03-29T16:21:24.503Z,98725.75
2023-03-29T16:23:51.516Z,98722.94
2023-03-29T16:26:18.760Z,98700.13
2023-03-29T16:28:45.957Z,98732.19
2023-03-29T16:31:14.028Z,98725.22
2023-03-29T16:33:41.709Z,98726.66
2023-03-29T16:36:09.867Z,98730.31
2023-03-29T16:38:37.089Z,98729.03
2023-03-29T16:41:03.964Z,98717.25
2023-03-29T16:43:30.644Z,98709.72
2023-03-29T16:45:57.796Z,98722.44
2023-03-29T16:48:24.609Z,98733.25
2023-03-29T16:50:51.699Z,98733.28
2023-03-29T16:53:19.633Z,98733.50
2023-03-29T16:55:47.509Z,98737.81
2023-03-29T16:58:15.509Z,98739.59
2023-03-29T17:00:44.999Z,98749.81
2023-03-29T17:03:13.464Z,98754.63
2023-03-29T17:05:41.867Z,98753.75
2023-03-29T17:08:10.339Z,98756.19
2023-03-29T17:10:40.832Z,98761.59
2023-03-29T17:13:08.497Z,98764.34
2023-03-29T17:15:39.444Z,98767.91
2023-03-29T17:18:07.151Z,98772.34
2023-03-29T17:20:33.841Z,98777.97
2023-03-29T17:23:00.658Z,98767.63
2023-03-29T17:25:27.298Z,98776.66
2023-03-29T17:27:54.147Z,98781.31
2023-03-29T17:30:21.191Z,98763.66
2023-03-29T17:32:48.189Z,98787.16
2023-03-29T17:35:14.923Z,98777.53
2023-03-29T17:37:42.484Z,98789.94
2023-03-29T17:40:15.302Z,98796.66
2023-03-29T17:42:43.399Z,98802.69
2023-03-29T17:45:11.260Z,98792.63
2023-03-29T17:47:38.877Z,98792.84
2023-03-29T17:50:06.761Z,98796.66
2023-03-29T17:52:33.881Z,98802.41
2023-03-29T17:55:00.551Z,98804.56
2023-03-29T17:57:27.649Z,98807.38
2023-03-29T17:59:54.278Z,98820.00
2023-03-29T18:02:23.402Z,98816.19
2023-03-29T18:04:50.846Z,98813.19
2023-03-29T18:07:18.402Z,98820.13
2023-03-29T18:09:45.542Z,98822.28
2023-03-29T18:12:12.523Z,98817.72
2023-03-29T18:14:39.181Z,98820.00
2023-03-29T18:17:06.014Z,98833.53
2023-03-29T18:19:32.617Z,98832.09
2023-03-29T18:21:59.378Z,98829.91
2023-03-29T18:24:26.111Z,98844.13
2023-03-29T18:26:53.232Z,98855.34
2023-03-29T18:29:20.026Z,98858.69
2023-03-29T18:31:46.971Z,98859.31
2023-03-29T18:34:13.721Z,98868.75
2023-03-29T18:36:40.374Z,98866.63
2023-03-29T18:39:07.039Z,98860.50
2023-03-29T18:41:35.620Z,98866.28
2023-03-29T18:44:02.427Z,98882.88
2023-03-29T18:46:31.275Z,98873.84
2023-03-29T18:49:00.534Z,98879.88
2023-03-29T18:51:31.057Z,98880.41
2023-03-29T18:53:57.756Z,98879.63
2023-03-29T18:56:24.430Z,98890.41
2023-03-29T18:58:51.640Z,98888.28
2023-03-29T19:01:18.294Z,98888.66
2023-03-29T19:03:45.211Z,98897.78
2023-03-29T19:06:12.229Z,98897.50
2023-03-29T19:08:41.206Z,98899.47
2023-03-29T19:11:11.392Z,98904.63
2023-03-29T19:13:38.175Z,98901.94
2023-03-29T19:16:05.252Z,98911.25
2023-03-29T19:18:32.932Z,98904.22
2023-03-29T19:20:59.581Z,98905.44
2023-03-29T19:23:28.254Z,98916.53
2023-03-29T19:25:57.422Z,98925.75
2023-03-29T19:28:25.998Z,98920.28
2023-03-29T19:30:53.244Z,98935.16
2023-03-29T19:33:20.773Z,98931.56
2023-03-29T19:35:50.425Z,98938.69
2023-03-29T19:38:17.662Z,98944.34
2023-03-29T19:40:46.196Z,98938.56
2023-03-29T19:43:19.236Z,98952.38
2023-03-29T19:45:47.705Z,98950.25
2023-03-29T19:48:21.823Z,98950.34
2023-03-29T19:50:50.284Z,98953.66
2023-03-29T19:53:16.956Z,98953.09
2023-03-29T19:55:45.143Z,98957.94
2023-03-29T19:58:13.055Z,98955.97
2023-03-29T20:00:41.518Z,98954.13
2023-03-29T20:03:11.230Z,98954.59
2023-03-29T20:05:38.818Z,98951.28
2023-03-29T20:08:06.752Z,98943.38
2023-03-29T20:10:34.682Z,98941.50
2023-03-29T20:13:02.349Z,98948.44
2023-03-29T20:15:29.058Z,98949.44
2023-03-29T20:17:59.399Z,98939.94
2023-03-29T20:20:27.675Z,98938.38
2023-03-29T20:23:04.415Z,98937.34
2023-03-29T20:25:32.967Z,98942.59
2023-03-29T20:27:59.668Z,98934.13
2023-03-29T20:30:26.770Z,98933.94
2023-03-29T20:32:53.673Z,98940.41
2023-03-29T20:35:20.664Z,98933.97
2023-03-29T20:37:47.543Z,98927.22
2023-03-29T20:40:15.785Z,98934.44
2023-03-29T20:42:42.755Z,98939.50
2023-03-29T20:45:18.602Z,98946.41
2023-03-29T20:47:57.691Z,98950.22
2023-03-29T20:50:26.299Z,98959.34
2023-03-29T20:52:56.449Z,98944.13
2023-03-29T20:55:23.636Z,98955.63
2023-03-29T20:57:54.158Z,98949.75
2023-03-29T21:00:21.005Z,98943.19
2023-03-29T21:02:47.995Z,98958.66
2023-03-29T21:05:15.849Z,98949.22
2023-03-29T21:07:44.702Z,98941.88
2023-03-29T21:10:12.371Z,98951.94
2023-03-29T21:12:40.099Z,98964.44
2023-03-29T21:15:09.424Z,98958.75
2023-03-29T21:17:37.308Z,98973.75
2023-03-29T21:20:11.151Z,98976.00
2023-03-29T21:22:39.822Z,98968.91
2023-03-29T21:25:08.335Z,98959.03
2023-03-29T21:27:35.424Z,98962.06
2023-03-29T21:30:02.542Z,98974.72
2023-03-29T21:32:29.477Z,98975.53
2023-03-29T21:34:56.113Z,98976.34
2023-03-29T21:37:22.979Z,98964.84
2023-03-29T21:39:49.723Z,98958.66
2023-03-29T21:42:16.772Z,98970.00
2023-03-29T21:44:43.499Z,98976.06
2023-03-29T21:47:10.710Z,98984.38
2023-03-29T21:49:37.979Z,98983.38
2023-03-29T21:52:04.666Z,98986.84
2023-03-29T21:54:31.301Z,98992.69
2023-03-29T21:56:58.034Z,98996.09
2023-03-29T21:59:24.587Z,98998.66
2023-03-29T22:01:51.248Z,98995.34
2023-03-29T22:04:25.818Z,98988.53
2023-03-29T22:06:56.305Z,98990.00
2023-03-29T22:09:26.324Z,98990.91
2023-03-29T22:11:53.108Z,98992.59
2023-03-29T22:14:19.701Z,98997.56
2023-03-29T22:16:47.059Z,98987.91
2023-03-29T22:19:13.792Z,98977.13
2023-03-29T22:21:40.834Z,98977.84
2023-03-29T22:24:07.862Z,98974.91
2023-03-29T22:26:34.918Z,98973.06
2023-03-29T22:29:01.987Z,98973.53
2023-03-29T22:31:29.729Z,98976.00
2023-03-29T22:33:58.289Z,98973.25
2023-03-29T22:36:27.831Z,98982.09
2023-03-29T22:38:55.137Z,98976.53
2023-03-29T22:41:23.794Z,98974.44
2023-03-29T22:43:55.405Z,98980.31
2023-03-29T22:46:22.526Z,98973.53
2023-03-29T22:48:49.661Z,98969.72
2023-03-29T22:51:16.757Z,98971.75
2023-03-29T22:53:43.510Z,98975.44
2023-03-29T22:56:10.430Z,98958.44
2023-03-29T22:58:37.550Z,98972.66
2023-03-29T23:01:05.893Z,98978.44
2023-03-29T23:03:33.043Z,98974.41
2023-03-29T23:06:04.292Z,98966.00
2023-03-29T23:08:33.153Z,98961.31
2023-03-29T23:11:00.434Z,98960.03
2023-03-29T23:13:29.404Z,98968.00
2023-03-29T23:15:58.833Z,98966.78
2023-03-29T23:18:28.530Z,98978.09
2023-03-29T23:20:57.194Z,98969.22
2023-03-29T23:23:25.869Z,98987.94
2023-03-29T23:25:53.315Z,98995.19
2023-03-29T23:28:23.654Z,98997.09
2023-03-29T23:30:57.988Z,98993.00
2023-03-29T23:33:25.868Z,98993.16
2023-03-29T23:35:53.363Z,98996.59
2023-03-29T23:38:20.304Z,98999.66
2023-03-29T23:40:58.803Z,98989.97
2023-03-29T23:43:27.331Z,98990.88
2023-03-29T23:45:57.899Z,98978.91
2023-03-29T23:48:24.599Z,98971.00
2023-03-29T23:50:51.454Z,98962.63
2023-03-29T23:53:19.790Z,98956.16
2023-03-29T23:55:48.268Z,98952.09
2023-03-29T23:58:16.129Z,98949.69
